Time;durP1;ratioP1;P1;durP2;ratioP2;P2;SDS_P1;SDS_P2;PMS_P1;PMS_P2;Temp;Humidity;BMP_temperature;BMP_pressure;BME280_temperature;BME280_humidity;BME280_pressure;Samples;Min_cycle;Max_cycle;Signal;HPM_P1;HPM_P2
2021/12/21 03:50:27;;;;;;;42.53;7.10;;;;;;;16.46;nan;101351.53;6040429;23;20458;-96
2021/12/21 04:00:57;;;;;;;30.97;6.30;;;;;;;16.42;nan;101341.16;6044844;23;20478;-94
2021/12/21 04:15:49;;;;;;;40.97;7.30;;;;;;;16.35;nan;101316.38;6191639;23;20773;-94
2021/12/21 04:30:17;;;;;;;46.47;7.17;;;;;;;16.36;100.00;101309.75;6257524;22;20294;-94
2021/12/21 05:09:24;;;;;;;;;;;;;;;;;;;;;
2021/12/21 05:20:07;;;;;;;33.03;7.60;;;;;;;16.70;100.00;101291.19;6078240;23;20420;-94
2021/12/21 05:30:36;;;;;;;63.67;30.87;;;;;;;16.62;100.00;101266.56;6088743;23;20407;-92
2021/12/21 05:54:49;;;;;;;;;;;;;;;;;;;;;
2021/12/21 06:24:27;;;;;;;52.63;12.17;;;;;;;16.75;100.00;101302.38;6094899;23;20404;-93
2021/12/21 06:26:59;;;;;;;36.80;7.57;;;;;;;16.76;100.00;101304.94;6125862;23;20410;-95
2021/12/21 06:38:19;;;;;;;;;;;;;;;;;;;;;
2021/12/21 06:40:54;;;;;;;47.90;13.13;;;;;;;16.70;100.00;101307.75;6219897;22;20455;-93
2021/12/21 06:51:52;;;;;;;40.20;7.33;;;;;;;16.74;100.00;101309.81;6052300;23;20383;-96
2021/12/21 06:54:19;;;;;;;40.13;8.07;;;;;;;16.69;100.00;101295.00;6067366;23;20476;-94
2021/12/21 07:20:01;;;;;;;42.63;8.20;;;;;;;16.77;100.00;101330.63;6010952;23;20904;-95
2021/12/21 07:49:54;;;;;;;37.90;7.87;;;;;;;16.43;100.00;101318.00;6157351;23;20376;-94
2021/12/21 07:53:24;;;;;;;33.97;7.00;;;;;;;16.51;100.00;101326.06;6090348;23;20428;-95
2021/12/21 08:00:31;;;;;;;47.37;9.50;;;;;;;16.50;100.00;101325.22;6157173;23;20875;-95
2021/12/21 08:03:15;;;;;;;41.60;8.13;;;;;;;16.39;100.00;101309.31;6133599;23;20872;-92
2021/12/21 08:36:54;;;;;;;39.13;9.73;;;;;;;16.53;100.00;101308.22;6215511;23;20375;-93
2021/12/21 08:47:12;;;;;;;41.03;8.80;;;;;;;16.68;100.00;101304.34;6220034;23;20379;-92
2021/12/21 08:57:13;;;;;;;39.77;8.20;;;;;;;16.83;100.00;101321.47;6216598;23;20502;-95
2021/12/21 08:59:40;;;;;;;30.93;7.87;;;;;;;16.87;100.00;101325.50;6141499;23;20403;-91
2021/12/21 09:09:31;;;;;;;34.73;8.77;;;;;;;17.07;100.00;101337.25;6218175;23;20411;-93
2021/12/21 09:12:11;;;;;;;43.63;8.63;;;;;;;17.08;100.00;101336.19;6143441;23;20414;-93
2021/12/21 09:15:13;;;;;;;44.70;9.57;;;;;;;17.15;100.00;101336.13;6142986;23;20407;-92
2021/12/21 09:18:19;;;;;;;47.37;10.63;;;;;;;17.17;100.00;101348.66;6192108;23;20439;-93
2021/12/21 09:21:07;;;;;;;46.17;12.77;;;;;;;17.20;100.00;101348.22;6166915;23;20486;-95
2021/12/21 09:24:30;;;;;;;29.57;8.63;;;;;;;17.21;100.00;101346.28;6167289;23;20447;-92
2021/12/21 09:31:36;;;;;;;41.47;8.70;;;;;;;17.31;100.00;101348.59;6217459;23;20418;-94
2021/12/21 09:34:30;;;;;;;37.70;8.87;;;;;;;17.37;100.00;101348.50;6217853;23;20407;-95
2021/12/21 09:41:05;;;;;;;29.53;7.00;;;;;;;17.46;100.00;101354.63;6218125;23;20376;-92
2021/12/21 09:44:13;;;;;;;39.97;7.77;;;;;;;17.43;100.00;101358.69;6192298;23;20750;-93
2021/12/21 09:46:56;;;;;;;43.40;6.93;;;;;;;17.35;100.00;101339.59;6217011;23;20408;-94
2021/12/21 09:49:24;;;;;;;47.40;16.10;;;;;;;17.37;100.00;101342.13;6140921;23;20489;-94
2021/12/21 09:52:19;;;;;;;30.83;6.60;;;;;;;17.41;100.00;101359.97;6142887;23;20477;-94
2021/12/21 10:18:16;;;;;;;29.37;6.67;;;;;;;17.25;100.00;101389.84;6217740;23;20901;-93
2021/12/21 10:36:16;;;;;;;30.90;7.60;;;;;;;17.28;100.00;101371.97;6217687;23;20842;-94
2021/12/21 10:38:52;;;;;;;22.10;8.00;;;;;;;17.20;100.00;101362.03;6142519;23;20526;-93
2021/12/21 10:41:42;;;;;;;36.67;7.47;;;;;;;17.14;100.00;101351.00;6143336;23;20407;-92
2021/12/21 10:44:40;;;;;;;38.97;9.07;;;;;;;17.07;100.00;101352.97;6051084;23;20411;-93
2021/12/21 10:47:23;;;;;;;30.27;7.77;;;;;;;17.20;100.00;101375.00;6095898;23;20407;-93
2021/12/21 11:01:44;;;;;;;31.40;8.37;;;;;;;17.09;100.00;101365.50;6095545;23;20402;-93
2021/12/21 11:04:17;;;;;;;29.03;7.40;;;;;;;17.14;100.00;101368.44;6095557;23;20467;-93
2021/12/21 11:07:39;;;;;;;37.73;8.40;;;;;;;17.18;100.00;101361.41;6048858;23;20908;-93
2021/12/21 11:10:29;;;;;;;26.00;7.70;;;;;;;17.21;100.00;101366.47;6077459;23;20493;-95
2021/12/21 11:13:20;;;;;;;36.17;8.90;;;;;;;17.31;100.00;101370.69;6031994;23;20411;-93
2021/12/21 11:16:18;;;;;;;39.87;8.87;;;;;;;17.35;100.00;101360.84;6025992;23;20917;-92
2021/12/21 11:18:55;;;;;;;23.67;8.10;;;;;;;17.36;100.00;101357.88;6048511;23;20442;-95
2021/12/21 11:21:34;;;;;;;35.43;7.17;;;;;;;17.47;100.00;101359.09;6111126;23;20411;-91
2021/12/21 11:24:12;;;;;;;31.07;7.90;;;;;;;17.47;100.00;101348.88;6166326;23;20407;-92
2021/12/21 11:26:49;;;;;;;35.50;8.33;;;;;;;17.50;100.00;101339.28;6190362;23;20414;-93
2021/12/21 11:29:21;;;;;;;30.63;7.97;;;;;;;17.49;100.00;101334.84;6166375;23;20897;-93
2021/12/21 11:32:42;;;;;;;30.30;7.10;;;;;;;17.59;100.00;101332.41;6141622;23;20463;-93
2021/12/21 11:38:39;;;;;;;41.13;8.80;;;;;;;17.60;100.00;101336.84;6162051;23;20440;-92
2021/12/21 11:41:28;;;;;;;34.13;8.00;;;;;;;17.62;100.00;101318.13;6137758;23;20495;-94
2021/12/21 11:44:20;;;;;;;35.03;8.80;;;;;;;17.70;100.00;101317.88;6161211;23;20869;-93
2021/12/21 11:47:01;;;;;;;33.73;7.63;;;;;;;17.74;100.00;101298.91;6137306;23;20432;-94
2021/12/21 11:49:50;;;;;;;35.47;7.60;;;;;;;17.75;100.00;101303.38;6137544;23;20408;-93
2021/12/21 11:52:22;;;;;;;35.13;8.23;;;;;;;17.68;100.00;101294.31;6137686;23;20713;-91
2021/12/21 11:54:55;;;;;;;26.63;7.53;;;;;;;17.57;100.00;101298.59;6114047;23;20468;-94
2021/12/21 11:57:45;;;;;;;48.53;7.97;;;;;;;17.51;100.00;101288.47;6113877;23;20396;-93
2021/12/21 12:00:27;;;;;;;29.33;6.50;;;;;;;17.40;100.00;101280.91;6160916;23;20415;-94
2021/12/21 12:03:20;;;;;;;36.40;7.93;;;;;;;17.26;100.00;101245.09;6157261;23;20409;-94
2021/12/21 12:06:00;;;;;;;36.10;7.00;;;;;;;17.34;100.00;101259.69;6137692;23;20388;-94
2021/12/21 12:08:54;;;;;;;26.37;6.33;;;;;;;17.46;100.00;101242.16;6137837;23;20956;-94
2021/12/21 12:11:40;;;;;;;32.33;9.90;;;;;;;17.60;100.00;101245.63;6139571;23;20412;-93
2021/12/21 12:14:22;;;;;;;41.00;7.80;;;;;;;17.62;100.00;101240.72;6136348;23;20416;-92
2021/12/21 12:16:58;;;;;;;38.27;9.43;;;;;;;17.60;100.00;101223.53;6112291;23;20819;-92
2021/12/21 12:19:53;;;;;;;30.00;7.43;;;;;;;17.65;100.00;101228.41;6135957;23;20454;-92
2021/12/21 12:23:13;;;;;;;34.13;8.47;;;;;;;17.74;100.00;101232.53;6161295;23;20416;-93
2021/12/21 12:25:57;;;;;;;35.93;7.90;;;;;;;17.79;100.00;101205.91;6160584;23;20409;-93
2021/12/21 12:28:48;;;;;;;44.07;8.17;;;;;;;18.00;100.00;101214.81;6110945;23;20412;-93
2021/12/21 12:31:33;;;;;;;38.20;12.53;;;;;;;18.06;100.00;101202.84;6177748;23;20443;-93
2021/12/21 12:34:33;;;;;;;39.30;10.03;;;;;;;18.16;100.00;101209.50;6166055;23;20743;-94
2021/12/21 12:37:23;;;;;;;42.57;11.83;;;;;;;18.03;100.00;101214.34;6164577;23;20995;-92
2021/12/21 12:40:18;;;;;;;28.63;10.33;;;;;;;17.95;100.00;101208.06;6166827;23;20499;-91
2021/12/21 12:43:20;;;;;;;41.13;10.93;;;;;;;17.90;100.00;101207.88;6202015;23;20458;-96
2021/12/21 12:45:55;;;;;;;55.07;21.47;;;;;;;17.88;100.00;101193.47;6167698;23;20894;-91
2021/12/21 12:49:01;;;;;;;76.43;17.70;;;;;;;17.99;100.00;101197.38;6192755;23;20783;-92
2021/12/21 12:51:48;;;;;;;53.70;15.00;;;;;;;18.02;100.00;101173.94;6217432;23;20407;-93
2021/12/21 12:54:19;;;;;;;57.87;24.90;;;;;;;18.07;100.00;101183.25;6167538;23;20408;-95
2021/12/21 12:57:11;;;;;;;40.80;20.03;;;;;;;18.09;100.00;101169.19;6145336;23;20403;-95
2021/12/21 12:59:53;;;;;;;45.57;10.17;;;;;;;18.09;100.00;101166.41;6169312;23;20482;-93
2021/12/21 13:02:35;;;;;;;36.20;8.93;;;;;;;18.06;100.00;101170.50;6144258;23;20717;-94
2021/12/21 13:05:07;;;;;;;33.63;7.90;;;;;;;18.05;100.00;101157.72;6143086;23;20408;-94
2021/12/21 13:07:36;;;;;;;37.60;9.90;;;;;;;18.01;100.00;101152.88;6167607;23;20408;-94
2021/12/21 13:10:12;;;;;;;41.00;9.50;;;;;;;17.99;100.00;101150.34;6143467;23;20411;-94
2021/12/21 13:12:42;;;;;;;35.27;7.77;;;;;;;17.85;100.00;101162.66;6192065;23;20948;-94
2021/12/21 13:15:41;;;;;;;43.63;9.90;;;;;;;17.79;100.00;101164.44;6143928;23;20408;-93
2021/12/21 13:18:13;;;;;;;52.53;9.63;;;;;;;17.62;100.00;101146.75;6190948;23;20439;-91
2021/12/21 13:20:48;;;;;;;35.87;8.30;;;;;;;17.56;100.00;101164.25;6167678;23;20518;-91
2021/12/21 13:23:29;;;;;;;47.03;9.57;;;;;;;17.43;100.00;101173.53;6190740;23;20399;-90
2021/12/21 13:26:02;;;;;;;53.57;9.50;;;;;;;17.39;100.00;101163.16;6143018;23;20787;-88
2021/12/21 13:28:44;;;;;;;33.30;9.03;;;;;;;17.34;100.00;101157.47;6190106;23;20501;-88
2021/12/21 13:31:17;;;;;;;42.37;10.13;;;;;;;17.30;100.00;101142.44;6166405;23;20435;-90
2021/12/21 13:34:08;;;;;;;42.50;8.97;;;;;;;17.27;100.00;101116.94;6142931;23;20717;-91
2021/12/21 13:36:45;;;;;;;46.47;10.10;;;;;;;17.35;100.00;101124.06;6165257;23;20411;-87
2021/12/21 13:39:35;;;;;;;41.40;9.50;;;;;;;17.48;100.00;101134.16;6167121;23;20439;-88
2021/12/21 13:42:10;;;;;;;34.80;8.80;;;;;;;17.53;100.00;101137.06;6188209;23;20431;-88
2021/12/21 13:45:01;;;;;;;36.17;8.97;;;;;;;17.58;100.00;101134.44;6141974;23;20410;-87
2021/12/21 13:47:31;;;;;;;35.17;8.23;;;;;;;17.74;100.00;101114.50;6189391;23;20783;-87
2021/12/21 13:50:24;;;;;;;51.00;10.80;;;;;;;17.90;100.00;101105.56;6164928;23;20407;-88
2021/12/21 13:52:54;;;;;;;54.97;11.10;;;;;;;17.92;100.00;101108.94;6189952;23;20396;-87
2021/12/21 13:55:27;;;;;;;47.63;9.80;;;;;;;17.90;100.00;101100.03;6142194;23;20404;-88
2021/12/21 13:57:57;;;;;;;45.60;10.37;;;;;;;17.83;100.00;101093.75;6142425;23;20467;-88
2021/12/21 14:00:31;;;;;;;41.33;10.27;;;;;;;17.75;100.00;101102.38;6143594;23;20399;-87
2021/12/21 14:06:13;;;;;;;30.63;8.47;;;;;;;17.58;100.00;101090.22;6105852;23;20428;-87
2021/12/21 14:08:45;;;;;;;52.97;10.60;;;;;;;17.53;100.00;101068.81;6099648;23;21002;-88
2021/12/21 14:11:16;;;;;;;53.33;9.93;;;;;;;17.48;100.00;101070.59;6099609;23;20406;-88
2021/12/21 14:13:46;;;;;;;44.47;10.67;;;;;;;17.44;100.00;101066.59;6124023;23;20964;-88
2021/12/21 14:16:33;;;;;;;41.43;8.63;;;;;;;17.40;100.00;101065.38;6103933;23;20414;-88
2021/12/21 14:19:04;;;;;;;40.50;9.33;;;;;;;17.37;100.00;101057.53;6075783;23;20441;-87
2021/12/21 14:21:37;;;;;;;40.97;9.60;;;;;;;17.34;100.00;101039.50;6053150;23;20398;-87
2021/12/21 15:52:27;;;;;;;35.33;21.40;;;;;;;17.81;100.00;101078.47;6009091;23;20415;-88
2021/12/21 16:13:39;;;;;;;14.13;3.47;;;;;;;17.84;100.00;101040.16;6206512;23;20416;-89
2021/12/21 17:08:55;;;;;;;19.70;5.60;;;;;;;17.14;100.00;101108.78;6152081;23;20890;-94
2021/12/21 17:11:36;;;;;;;14.53;5.97;;;;;;;17.02;100.00;101093.19;6074926;23;20407;-94
2021/12/21 18:55:44;;;;;;;15.37;6.10;;;;;;;16.55;100.00;101189.31;6237540;22;21362;-93
2021/12/21 18:58:13;;;;;;;24.33;8.20;;;;;;;16.51;100.00;101183.41;6191809;23;20412;-93
2021/12/21 19:00:46;;;;;;;31.20;7.07;;;;;;;16.50;100.00;101181.72;6143047;23;20750;-93
2021/12/21 19:03:45;;;;;;;23.13;5.90;;;;;;;16.51;100.00;101193.59;6169950;23;20391;-93
2021/12/21 19:06:27;;;;;;;20.80;5.43;;;;;;;16.39;100.00;101174.13;6190785;23;20790;-93
2021/12/21 19:09:07;;;;;;;18.50;3.10;;;;;;;16.50;100.00;101186.41;6166387;23;20419;-92
2021/12/21 19:11:36;;;;;;;24.93;3.93;;;;;;;16.44;100.00;101181.75;6166134;23;20407;-93
2021/12/21 19:14:08;;;;;;;22.60;4.97;;;;;;;16.50;100.00;101181.72;6142085;23;20432;-92
2021/12/21 19:17:04;;;;;;;27.93;4.60;;;;;;;16.49;100.00;101185.53;6165729;23;20453;-92
2021/12/21 19:19:33;;;;;;;27.77;3.80;;;;;;;16.44;100.00;101167.97;6166363;23;20439;-93
2021/12/21 19:22:11;;;;;;;33.63;4.43;;;;;;;16.45;100.00;101173.25;6141772;23;20408;-94
2021/12/21 19:24:40;;;;;;;78.80;35.70;;;;;;;16.43;100.00;101167.09;6167230;23;20407;-93
2021/12/21 19:27:19;;;;;;;89.07;44.40;;;;;;;16.48;100.00;101167.28;6141830;23;20894;-93
2021/12/21 19:29:54;;;;;;;71.50;37.60;;;;;;;16.49;100.00;101174.50;6165083;23;20431;-93
2021/12/21 19:32:33;;;;;;;82.57;39.63;;;;;;;16.50;100.00;101176.19;6144179;23;20412;-93
2021/12/21 19:35:21;;;;;;;56.87;23.60;;;;;;;16.51;100.00;101182.56;6166834;23;20396;-93
2021/12/21 19:38:08;;;;;;;40.87;20.43;;;;;;;16.53;100.00;101197.00;6165710;23;20399;-93
2021/12/21 19:40:45;;;;;;;40.77;11.50;;;;;;;16.42;100.00;101195.75;6215588;23;20443;-93
2021/12/21 19:43:24;;;;;;;23.37;8.70;;;;;;;16.52;100.00;101190.63;6165982;23;20944;-93
2021/12/21 19:46:13;;;;;;;23.33;7.07;;;;;;;16.41;100.00;101163.72;6171532;23;20408;-93
2021/12/21 19:48:59;;;;;;;20.30;4.70;;;;;;;16.47;100.00;101203.38;6141734;23;20418;-93
2021/12/21 19:51:49;;;;;;;21.17;4.57;;;;;;;16.47;100.00;101234.59;6148895;23;20412;-94
2021/12/21 19:54:45;;;;;;;18.67;6.00;;;;;;;16.35;100.00;101239.13;6165999;23;20407;-94
2021/12/21 20:01:10;;;;;;;17.70;4.97;;;;;;;15.84;100.00;101220.63;6216969;23;20483;-93
2021/12/21 20:07:21;;;;;;;32.27;8.97;;;;;;;15.62;100.00;101246.75;6216725;23;20418;-94
2021/12/21 20:13:31;;;;;;;23.10;5.57;;;;;;;15.33;100.00;101255.47;6217103;23;20769;-94
2021/12/21 20:16:06;;;;;;;23.33;6.93;;;;;;;15.24;100.00;101241.06;6166001;23;20411;-94
2021/12/21 20:22:21;;;;;;;26.57;9.20;;;;;;;15.06;100.00;101225.16;6216184;23;20433;-94
2021/12/21 20:24:49;;;;;;;12.93;4.83;;;;;;;15.03;100.00;101208.22;6140659;23;20614;-95
2021/12/21 20:27:55;;;;;;;21.50;8.77;;;;;;;15.03;100.00;101205.47;6142069;23;20400;-95
